Herbert C Jackson — WL3972 — position and weather

sailwx.info

Track history (hours):
 
Tides and Currents Weather Stations Pressure Air Temp Water Temp Dewpoint Dewpoint Depression Visibility Wind Speed Wind Dir Waves Ship Positions

Herbert C Jackson

Owner: THE INTERLAKE STEAMSHIP COMPANY, Middleburg Heights, OH. More information available from US FCC via Universal Licensing System and Coast Guard Vessel Documentation Center.

Last reported at 2015-Dec-11 13:32 UTC. Time now 2016-Jul-29 00:08 UTC.
Position N 46°44' W 092°05'.
Warning: this ship's position is months out of date.

Length 239 m; draft 6.2 m.

Type: Cargo ship. MMSI: 366904930.

Date/timePositionNaut miles runAvg speedWind from/ knotsBaromVisibWave heightAir tempDewpointWater temp
2015-Dec-11 13:32N 46°44' W 092°05'1 0.9
2015-Dec-11 12:32N 46°45' W 092°06'3 5.7
2015-Dec-11 12:00N 46°48' W 092°06'3 6.3 220 / 51003.7 2.5 2.8
2015-Dec-11 11:33N 46°48' W 092°02'5 9.8
2015-Dec-11 11:00N 46°48' W 091°54'512.0 340 / 71002.0 2.6 4.2
2015-Dec-11 10:32N 46°53' W 091°51'2 4.0
2015-Dec-11 10:00N 46°54' W 091°48'714.8 300 / 101000.7 2.8 4.6
2015-Dec-11 09:33N 46°58' W 091°40'4 6.5
2015-Dec-11 09:00N 47°00' W 091°36'1010.1 330 / 10999.7 3.2 5.1
2015-Dec-11 08:00N 47°06' W 091°24'1010.1 310 / 11998.0 3.0 5.0
2015-Dec-11 07:00N 47°12' W 091°12'4 4.1 330 / 13996.3 3.9 5.2
2015-Dec-11 06:00N 47°12' W 091°06'1010.1 350 / 19994.6 3.5 5.0
2015-Dec-11 05:00N 47°18' W 090°54'1010.1 340 / 17993.6 3.4 4.9
2015-Dec-11 04:00N 47°24' W 090°42'1010.1 330 / 15992.2 3.5 4.9
2015-Dec-11 03:00N 47°30' W 090°30'1010.1 310 / 11991.2 3.5 5.0
2015-Dec-11 02:00N 47°36' W 090°18'8 8.1 340 / 12990.5 4.2 4.8
2015-Dec-11 01:00N 47°36' W 090°06'1010.1 360 / 12989.8 4.7 5.4
2015-Dec-11 00:00N 47°42' W 089°54'1010.1 030 / 11989.8 4.8 5.2
2015-Dec-10 23:00N 47°48' W 089°42'1010.0 030 / 17989.5 4.8 5.8
2015-Dec-10 22:00N 47°54' W 089°30'1010.0 030 / 15989.5 4.8 5.8
2015-Dec-10 21:00N 48°00' W 089°18'1010.0 040 / 16989.8 4.8 5.9
2015-Dec-10 20:00N 48°06' W 089°06'23 5.8 040 / 14989.8 4.9 6.0
2015-Dec-10 16:00N 48°18' W 088°36'4 4.0 140 / 7993.2 5.0 5.8
2015-Dec-10 15:00N 48°18' W 088°30'4 4.0 160 / 8993.6 4.9 5.8
2015-Dec-10 14:00N 48°18' W 088°24'40 6.7 170 / 10993.9 4.8 5.8
2015-Dec-10 08:00N 48°00' W 087°30'1010.0 170 / 25997.0 5.9 5.2
2015-Dec-10 07:00N 47°54' W 087°18'7 7.2 150 / 16997.3 5.9 5.4
2015-Dec-10 06:00N 47°48' W 087°12'14 7.2 140 / 15998.3 5.8 5.2
2015-Dec-10 04:00N 47°36' W 087°00'48 8.0 140 / 111001.4 4.7 4.9
2015-Dec-09 22:00N 46°48' W 087°06'7 7.3 280 / 81001.7 5.3 6.6
2015-Dec-09 21:00N 46°42' W 087°12'7 7.3 300 / 121001.4 5.6 5.7
2015-Dec-09 20:00N 46°36' W 087°18'0 0.0 260 / 121001.0 6.0 5.5
2015-Dec-09 19:00N 46°36' W 087°18'2512.4 320 / 20999.0 5.6 5.7
2015-Dec-09 17:00N 46°36' W 086°42'6713.4 290 / 16999.3 5.4 5.5
2015-Dec-09 12:00N 46°48' W 085°06'2412.2 140 / 221001.7 5.0 5.4
2015-Dec-09 10:00N 46°30' W 084°42'1212.4 140 / 181004.7 4.6 6.3
2015-Dec-09 09:00N 46°30' W 084°24'0 0.0 130 / 121005.8 4.1 6.1
2015-Dec-09 08:00N 46°30' W 084°24'0 0.0 130 / 91006.8 4.5 8.5
2015-Dec-08 23:00N 46°30' W 084°24'0 0.0 140 / 121009.5 3.6 5.8
2015-Dec-08 22:00N 46°30' W 084°24'8 8.3 140 / 101009.5 3.3 6.1
2015-Dec-08 21:00N 46°30' W 084°36'7 7.3 140 / 201008.5 3.7 6.3
2015-Dec-08 20:00N 46°36' W 084°42'0 0.0 150 / 221008.5 3.8 6.3
2015-Dec-08 18:00N 46°36' W 084°42'0 0.0 150 / 231009.8 3.2 6.3
2015-Dec-08 17:00N 46°36' W 084°42'0 0.0 150 / 231010.2 3.5 6.3
2015-Dec-08 15:00N 46°36' W 084°42'0 0.0 130 / 191011.2 3.8 6.4
2015-Dec-08 13:00N 46°36' W 084°42'1 1.2 140 / 231011.5 3.2 6.4
2015-Dec-08 12:10N 46°36' W 084°41'1 5.4
2015-Dec-08 12:00N 46°36' W 084°42'0 0.0 140 / 241011.2 3.2 6.4
2015-Dec-08 10:00N 46°36' W 084°42'0 0.0 150 / 211012.5 3.5 6.3
2015-Dec-08 09:00N 46°36' W 084°42'0 0.0 150 / 201013.2 3.9 6.3
2015-Dec-08 06:00N 46°36' W 084°42'0 0.0 140 / 221014.2 3.9 6.4
2015-Dec-08 05:00N 46°36' W 084°42'0 0.0 140 / 191015.6 3.8 6.4
2015-Dec-08 04:00N 46°36' W 084°42'0 0.0 150 / 231015.6 3.7 6.4
2015-Dec-08 03:00N 46°36' W 084°42'0 0.0 160 / 221016.3 3.5 6.4
2015-Dec-08 01:00N 46°36' W 084°42'1 1.4 130 / 191017.9 4.0 6.4
2015-Dec-08 00:19N 46°36' W 084°41'1 3.1
2015-Dec-08 00:00N 46°36' W 084°42'1 2.3 140 / 191018.3 3.5 6.3
2015-Dec-07 23:33N 46°36' W 084°41'1 1.8
2015-Dec-07 23:00N 46°36' W 084°42'0 0.0 150 / 191019.0 4.0 6.3
2015-Dec-07 21:00N 46°36' W 084°42'0 0.0 140 / 171019.3 5.8 6.3
2015-Dec-07 20:00N 46°36' W 084°42'4 9.6 130 / 161019.3 5.5 6.3
2015-Dec-07 19:33N 46°33' W 084°39'4 7.5
2015-Dec-07 19:00N 46°36' W 084°42'14 4.6 120 / 151020.0 5.0 6.3
2015-Dec-07 16:00N 46°30' W 084°24'0 0.0 110 / 21023.0 2.9 5.9
2015-Dec-07 15:00N 46°30' W 084°24'0 0.0 070 / 41023.4 1.1 6.2
2015-Dec-07 14:00N 46°30' W 084°24'0 0.0 020 / 11023.4 1.5 5.9
2015-Dec-07 11:00N 46°30' W 084°24'0 0.0 330 / 21022.7 1.6 6.2
2015-Dec-07 10:00N 46°30' W 084°24'0 0.0 120 / 21022.4 3.7 6.0
2015-Dec-07 09:00N 46°30' W 084°24'0 0.0 310 / 61022.0 3.9 6.0
2015-Dec-07 07:00N 46°30' W 084°24'0 0.0 340 / 121022.0 4.4 6.0
2015-Dec-07 06:00N 46°30' W 084°24'813.6 280 / 81022.7 4.8 5.8
2015-Dec-07 05:25N 46°25' W 084°15'8 7.5
2015-Dec-07 04:17N 46°19' W 084°07'620.4
2015-Dec-07 04:00N 46°24' W 084°12'1223.6 280 / 111021.8 4.5 5.7
2015-Dec-07 03:29N 46°13' W 084°07'510.9
2015-Dec-07 03:00N 46°18' W 084°06'6 6.0 260 / 81022.1 4.4 5.7
2015-Dec-07 02:00N 46°12' W 084°06'1840.2 260 / 121021.8 4.9 5.4
2015-Dec-07 01:32N 45°56' W 083°53'4 7.5
2015-Dec-07 01:00N 46°00' W 083°54'7 7.3 270 / 141021.5 5.3 4.3
2015-Dec-07 00:00N 45°54' W 083°48'2713.5 270 / 241021.5 6.3 6.5
2015-Dec-06 22:00N 45°30' W 083°30'1514.7 300 / 81022.1 5.8 6.0
2015-Dec-06 21:00N 45°18' W 083°18'1010.4 150 / 71022.1 5.5 6.0
2015-Dec-06 20:00N 45°12' W 083°06'6813.6 180 / 81022.5 5.1 6.0
2015-Dec-06 15:00N 44°06' W 082°42'3712.3 200 / 161028.2 1.7 6.4
2015-Dec-06 12:00N 43°30' W 082°30'1312.8 170 / 161029.9 1.9 7.3
2015-Dec-06 11:00N 43°18' W 082°24'1212.0 190 / 131030.9 0.8 6.6
2015-Dec-06 10:00N 43°06' W 082°24'1212.0 190 / 91031.6 0.7 6.9
2015-Dec-06 09:00N 42°54' W 082°24'7 7.9 190 / 71032.3 0.8 6.6
2015-Dec-06 08:05N 42°48' W 082°29'112.2
2015-Dec-06 08:00N 42°48' W 082°30'512.0 210 / 71033.3 0.5 6.4
2015-Dec-06 07:33N 42°43' W 082°29'712.0
2015-Dec-06 07:00N 42°36' W 082°30'4 8.9 200 / 111034.3 0.6 6.5
2015-Dec-06 06:33N 42°34' W 082°35'712.1
2015-Dec-06 06:00N 42°30' W 082°42'3 7.0 180 / 81034.1 1.4 6.5
2015-Dec-06 05:33N 42°28' W 082°45'4 8.0
2015-Dec-06 05:00N 42°24' W 082°48'716.1 180 / 51034.5 0.6 5.6
2015-Dec-06 04:33N 42°21' W 082°57'4 6.9
2015-Dec-06 04:00N 42°18' W 083°00'7 7.5 120 / 41034.8 0.4 5.4
2015-Dec-06 03:00N 42°12' W 083°06'24 8.1 160 / 71035.8 1.2 5.5
2015-Dec-06 00:00N 41°48' W 083°12'1110.8 180 / 51036.7 0.4 5.1
2015-Dec-05 23:00N 41°42' W 083°24'4 4.5 160 / 61036.7 0.5 4.7
2015-Dec-05 22:00N 41°42' W 083°30'0 0.0 120 / 41036.7 0.6 6.0
2015-Dec-05 21:00N 41°42' W 083°30'0 0.0 120 / 41036.7 1.3 6.2
2015-Dec-05 19:00N 41°42' W 083°30'0 0.0 230 / 41037.1 0.8 5.9
2015-Dec-05 18:00N 41°42' W 083°30'0 0.0 230 / 41037.4 -0.0 6.1
2015-Dec-05 17:00N 41°42' W 083°30'0 0.0 230 / 61038.1 -0.3 5.9
2015-Dec-05 13:00N 41°42' W 083°30'0 0.0 220 / 81038.8 -0.7 5.7
2015-Dec-05 12:00N 41°42' W 083°30'0 0.0 210 / 51038.4 -0.5 5.8
2015-Dec-05 10:00N 41°42' W 083°30'0 0.0 190 / 61037.8 -0.4 6.1
2015-Dec-05 09:00N 41°42' W 083°30'0 0.0 180 / 81037.4 -0.4 6.1
2015-Dec-05 08:00N 41°42' W 083°30'4 4.5 190 / 91037.4 -0.5 6.0
2015-Dec-05 07:00N 41°42' W 083°24'7 7.5 200 / 111036.4 -0.0 5.2
2015-Dec-05 06:00N 41°48' W 083°18'2010.0 210 / 161035.4 1.8 5.2
2015-Dec-05 04:00N 42°06' W 083°06'13 3.2 190 / 101035.5 3.3 5.9
2015-Dec-05 00:00N 42°18' W 083°12'0 0.0 190 / 61034.8 5.5 10.8
2015-Dec-04 23:00N 42°18' W 083°12'0 0.0 200 / 81034.5 5.4 10.5
2015-Dec-04 21:00N 42°18' W 083°12'7 2.9 180 / 61033.1 7.0 10.0
2015-Dec-04 18:24N 42°19' W 083°02'2 5.5
2015-Dec-04 18:00N 42°18' W 083°00'817.7 240 / 101032.1 4.0 5.7
2015-Dec-04 17:32N 42°23' W 082°52'1111.1
2015-Dec-04 16:33N 42°31' W 082°41'611.3
2015-Dec-04 16:00N 42°36' W 082°36'8 8.3 220 / 131031.8 3.5 6.5
2015-Dec-04 15:04N 42°42' W 082°30'0 2.4
2015-Dec-04 15:00N 42°42' W 082°30'1212.0 220 / 101031.6 3.6 6.8
2015-Dec-04 14:00N 42°54' W 082°30'4210.5 170 / 51030.9 2.9 6.8
2015-Dec-04 10:00N 43°36' W 082°30'1212.0 240 / 191025.2 3.8 7.6
2015-Dec-04 09:00N 43°48' W 082°30'3712.3 240 / 221023.8 3.7 6.7
2015-Dec-04 06:00N 44°24' W 082°42'1312.7 250 / 271021.8 3.4 6.5
2015-Dec-04 05:00N 44°36' W 082°48'3812.7 240 / 251021.1 3.4 6.3
2015-Dec-04 02:00N 45°12' W 083°06'1010.4 240 / 171020.8 4.1 6.7
2015-Dec-04 01:00N 45°18' W 083°18'1312.7 220 / 141020.4 3.9 6.1
2015-Dec-04 00:00N 45°30' W 083°24'1514.6 240 / 171020.1 4.2 5.9
2015-Dec-03 23:00N 45°42' W 083°36'1514.6 240 / 131020.1 3.9 6.4
2015-Dec-03 22:00N 45°54' W 083°48'2022.4 260 / 221019.8 3.2 6.6
2015-Dec-03 21:07N 46°10' W 084°04'12105.6
2015-Dec-03 21:00N 46°00' W 083°54'27 9.0 270 / 121020.1 1.2 4.2
2015-Dec-03 18:00N 46°24' W 084°12'7 7.3 180 / 61018.8 1.1 5.7
2015-Dec-03 17:00N 46°30' W 084°18'0 0.0 270 / 21019.4 1.2 5.6
2015-Dec-03 16:00N 46°30' W 084°18'7 9.8 320 / 21018.8 0.9 5.6
2015-Dec-03 15:18N 46°28' W 084°28'310.0
2015-Dec-03 15:00N 46°30' W 084°24'8 8.3 030 / 51019.0 0.6 5.8
2015-Dec-03 14:00N 46°30' W 084°36'1010.2 340 / 111018.6 1.7 6.4
2015-Dec-03 13:00N 46°36' W 084°48'1514.6 330 / 111017.6 2.2 6.7
2015-Dec-03 12:00N 46°48' W 085°00'1010.2 1016.9 1.8 6.2
2015-Dec-03 11:00N 46°54' W 085°12'2914.7 350 / 171015.9 1.8 6.0
2015-Dec-03 09:00N 46°48' W 085°54'1212.3 310 / 241015.6 1.6 6.3
2015-Dec-03 08:00N 46°48' W 086°12'1413.7 330 / 261015.6 1.9 5.7
2015-Dec-03 07:00N 46°42' W 086°30'1212.3 340 / 251014.6 2.5 5.5
2015-Dec-03 06:00N 46°42' W 086°48'1010.2 340 / 251014.6 2.6 5.8
2015-Dec-03 05:00N 46°36' W 087°00'1212.4 350 / 251013.5 3.0 5.6
2015-Dec-03 04:00N 46°36' W 087°18'4 4.1 360 / 271012.9 3.7 5.5
2015-Dec-03 03:00N 46°36' W 087°24'0 0.0 340 / 31013.2 3.7 4.9
2015-Dec-03 02:00N 46°36' W 087°24'0 0.0 300 / 41012.5 2.5 5.0
2015-Dec-03 01:00N 46°36' W 087°24'0 0.0 300 / 41012.2 2.6 5.3
2015-Dec-03 00:00N 46°36' W 087°24'0 0.0 300 / 61011.5 2.9 5.1
2015-Dec-02 23:00N 46°36' W 087°24'0 0.0 310 / 81010.8 3.3 5.1
2015-Dec-02 22:00N 46°36' W 087°24'0 0.0 310 / 31010.2 4.0 4.9
2015-Dec-02 21:00N 46°36' W 087°24'6 6.0 1009.1 3.9 5.4
2015-Dec-02 20:00N 46°30' W 087°24'0 0.0 350 / 81008.5 3.9 5.0
2015-Dec-02 19:00N 46°30' W 087°24'0 0.0 050 / 61007.8 3.7 4.9
2015-Dec-02 18:00N 46°30' W 087°24'0 0.0 050 / 51007.8 3.5 5.0
2015-Dec-02 17:00N 46°30' W 087°24'0 0.0 270 / 11008.5 4.6 4.8
2015-Dec-02 16:00N 46°30' W 087°24'0 0.0 250 / 21008.8 3.2 4.7
2015-Dec-02 15:00N 46°30' W 087°24'1413.8 260 / 51008.8 1.2 5.5
2015-Dec-02 14:00N 46°36' W 087°06'2512.7 210 / 141007.8 1.2 5.8
2015-Dec-02 12:00N 46°42' W 086°30'1212.3 190 / 161007.5 2.1 5.7
2015-Dec-02 11:00N 46°42' W 086°12'1413.7 190 / 191006.8 1.6 5.7
2015-Dec-02 10:00N 46°48' W 085°54'1212.3 200 / 201006.4 1.8 5.7
2015-Dec-02 09:00N 46°48' W 085°36'1212.3 190 / 211006.1 2.7 5.7
2015-Dec-02 08:00N 46°48' W 085°18'8 8.2 190 / 241006.4 3.3 6.0
2015-Dec-02 07:00N 46°48' W 085°06'1413.7 210 / 161007.1 3.1 6.2
2015-Dec-02 06:00N 46°42' W 084°48'1514.6 220 / 201007.5 4.2 6.7
2015-Dec-02 05:00N 46°30' W 084°36'4 4.1 220 / 191007.5 4.5 6.4
2015-Dec-02 04:00N 46°30' W 084°30'4 4.1 190 / 111007.5 4.1 5.7
2015-Dec-02 03:00N 46°30' W 084°24'4 4.1 100 / 21008.5 3.5 5.6
2015-Dec-02 02:00N 46°30' W 084°18'15 7.3 100 / 31007.6 3.2 5.4
2015-Dec-02 00:00N 46°18' W 084°06'6 6.0 120 / 51007.6 3.6 5.3
2015-Dec-01 23:00N 46°12' W 084°06'2211.0 200 / 91007.2 4.8 4.8
2015-Dec-01 21:00N 45°54' W 083°48'2713.5 130 / 161007.2 5.9 6.7
2015-Dec-01 19:00N 45°30' W 083°30'1312.7 120 / 201007.9 5.2 6.0
2015-Dec-01 18:00N 45°18' W 083°24'0 0.0 120 / 211008.6 5.0 5.5
2015-Dec-01 15:00N 45°18' W 083°24'   120 / 171012.0 4.5 4.7
Track history (hours):
 
Tides and Currents Weather Stations Pressure Air Temp Water Temp Dewpoint Dewpoint Depression Visibility Wind Speed Wind Dir Waves Ship Positions

Herbert C Jackson

Owner: THE INTERLAKE STEAMSHIP COMPANY, Middleburg Heights, OH. More information available from US FCC via Universal Licensing System and Coast Guard Vessel Documentation Center.

Last reported at 2015-Dec-11 13:32 UTC. Time now 2016-Jul-29 00:08 UTC.
Position N 46°44' W 092°05'.
Warning: this ship's position is months out of date.

Length 239 m; draft 6.2 m.

Type: Cargo ship. MMSI: 366904930.

Date/timePositionNaut miles runAvg speedWind from/ knotsBaromVisibWave heightAir tempDewpointWater temp
2015-Dec-11 13:32N 46°44' W 092°05'1 0.9
2015-Dec-11 12:32N 46°45' W 092°06'3 5.7
2015-Dec-11 12:00N 46°48' W 092°06'3 6.3 220 / 51003.7 2.5 2.8
2015-Dec-11 11:33N 46°48' W 092°02'5 9.8
2015-Dec-11 11:00N 46°48' W 091°54'512.0 340 / 71002.0 2.6 4.2
2015-Dec-11 10:32N 46°53' W 091°51'2 4.0
2015-Dec-11 10:00N 46°54' W 091°48'714.8 300 / 101000.7 2.8 4.6
2015-Dec-11 09:33N 46°58' W 091°40'4 6.5
2015-Dec-11 09:00N 47°00' W 091°36'1010.1 330 / 10999.7 3.2 5.1
2015-Dec-11 08:00N 47°06' W 091°24'1010.1 310 / 11998.0 3.0 5.0
2015-Dec-11 07:00N 47°12' W 091°12'4 4.1 330 / 13996.3 3.9 5.2
2015-Dec-11 06:00N 47°12' W 091°06'1010.1 350 / 19994.6 3.5 5.0
2015-Dec-11 05:00N 47°18' W 090°54'1010.1 340 / 17993.6 3.4 4.9
2015-Dec-11 04:00N 47°24' W 090°42'1010.1 330 / 15992.2 3.5 4.9
2015-Dec-11 03:00N 47°30' W 090°30'1010.1 310 / 11991.2 3.5 5.0
2015-Dec-11 02:00N 47°36' W 090°18'8 8.1 340 / 12990.5 4.2 4.8
2015-Dec-11 01:00N 47°36' W 090°06'1010.1 360 / 12989.8 4.7 5.4
2015-Dec-11 00:00N 47°42' W 089°54'1010.1 030 / 11989.8 4.8 5.2
2015-Dec-10 23:00N 47°48' W 089°42'1010.0 030 / 17989.5 4.8 5.8
2015-Dec-10 22:00N 47°54' W 089°30'1010.0 030 / 15989.5 4.8 5.8
2015-Dec-10 21:00N 48°00' W 089°18'1010.0 040 / 16989.8 4.8 5.9
2015-Dec-10 20:00N 48°06' W 089°06'23 5.8 040 / 14989.8 4.9 6.0
2015-Dec-10 16:00N 48°18' W 088°36'4 4.0 140 / 7993.2 5.0 5.8
2015-Dec-10 15:00N 48°18' W 088°30'4 4.0 160 / 8993.6 4.9 5.8
2015-Dec-10 14:00N 48°18' W 088°24'40 6.7 170 / 10993.9 4.8 5.8
2015-Dec-10 08:00N 48°00' W 087°30'1010.0 170 / 25997.0 5.9 5.2
2015-Dec-10 07:00N 47°54' W 087°18'7 7.2 150 / 16997.3 5.9 5.4
2015-Dec-10 06:00N 47°48' W 087°12'14 7.2 140 / 15998.3 5.8 5.2
2015-Dec-10 04:00N 47°36' W 087°00'48 8.0 140 / 111001.4 4.7 4.9
2015-Dec-09 22:00N 46°48' W 087°06'7 7.3 280 / 81001.7 5.3 6.6
2015-Dec-09 21:00N 46°42' W 087°12'7 7.3 300 / 121001.4 5.6 5.7
2015-Dec-09 20:00N 46°36' W 087°18'0 0.0 260 / 121001.0 6.0 5.5
2015-Dec-09 19:00N 46°36' W 087°18'2512.4 320 / 20999.0 5.6 5.7
2015-Dec-09 17:00N 46°36' W 086°42'6713.4 290 / 16999.3 5.4 5.5
2015-Dec-09 12:00N 46°48' W 085°06'2412.2 140 / 221001.7 5.0 5.4
2015-Dec-09 10:00N 46°30' W 084°42'1212.4 140 / 181004.7 4.6 6.3
2015-Dec-09 09:00N 46°30' W 084°24'0 0.0 130 / 121005.8 4.1 6.1
2015-Dec-09 08:00N 46°30' W 084°24'0 0.0 130 / 91006.8 4.5 8.5
2015-Dec-08 23:00N 46°30' W 084°24'0 0.0 140 / 121009.5 3.6 5.8
2015-Dec-08 22:00N 46°30' W 084°24'8 8.3 140 / 101009.5 3.3 6.1
2015-Dec-08 21:00N 46°30' W 084°36'7 7.3 140 / 201008.5 3.7 6.3
2015-Dec-08 20:00N 46°36' W 084°42'0 0.0 150 / 221008.5 3.8 6.3
2015-Dec-08 18:00N 46°36' W 084°42'0 0.0 150 / 231009.8 3.2 6.3
2015-Dec-08 17:00N 46°36' W 084°42'0 0.0 150 / 231010.2 3.5 6.3
2015-Dec-08 15:00N 46°36' W 084°42'0 0.0 130 / 191011.2 3.8 6.4
2015-Dec-08 13:00N 46°36' W 084°42'1 1.2 140 / 231011.5 3.2 6.4
2015-Dec-08 12:10N 46°36' W 084°41'1 5.4
2015-Dec-08 12:00N 46°36' W 084°42'0 0.0 140 / 241011.2 3.2 6.4
2015-Dec-08 10:00N 46°36' W 084°42'0 0.0 150 / 211012.5 3.5 6.3
2015-Dec-08 09:00N 46°36' W 084°42'0 0.0 150 / 201013.2 3.9 6.3
2015-Dec-08 06:00N 46°36' W 084°42'0 0.0 140 / 221014.2 3.9 6.4
2015-Dec-08 05:00N 46°36' W 084°42'0 0.0 140 / 191015.6 3.8 6.4
2015-Dec-08 04:00N 46°36' W 084°42'0 0.0 150 / 231015.6 3.7 6.4
2015-Dec-08 03:00N 46°36' W 084°42'0 0.0 160 / 221016.3 3.5 6.4
2015-Dec-08 01:00N 46°36' W 084°42'1 1.4 130 / 191017.9 4.0 6.4
2015-Dec-08 00:19N 46°36' W 084°41'1 3.1
2015-Dec-08 00:00N 46°36' W 084°42'1 2.3 140 / 191018.3 3.5 6.3
2015-Dec-07 23:33N 46°36' W 084°41'1 1.8
2015-Dec-07 23:00N 46°36' W 084°42'0 0.0 150 / 191019.0 4.0 6.3
2015-Dec-07 21:00N 46°36' W 084°42'0 0.0 140 / 171019.3 5.8 6.3
2015-Dec-07 20:00N 46°36' W 084°42'4 9.6 130 / 161019.3 5.5 6.3
2015-Dec-07 19:33N 46°33' W 084°39'4 7.5
2015-Dec-07 19:00N 46°36' W 084°42'14 4.6 120 / 151020.0 5.0 6.3
2015-Dec-07 16:00N 46°30' W 084°24'0 0.0 110 / 21023.0 2.9 5.9
2015-Dec-07 15:00N 46°30' W 084°24'0 0.0 070 / 41023.4 1.1 6.2
2015-Dec-07 14:00N 46°30' W 084°24'0 0.0 020 / 11023.4 1.5 5.9
2015-Dec-07 11:00N 46°30' W 084°24'0 0.0 330 / 21022.7 1.6 6.2
2015-Dec-07 10:00N 46°30' W 084°24'0 0.0 120 / 21022.4 3.7 6.0
2015-Dec-07 09:00N 46°30' W 084°24'0 0.0 310 / 61022.0 3.9 6.0
2015-Dec-07 07:00N 46°30' W 084°24'0 0.0 340 / 121022.0 4.4 6.0
2015-Dec-07 06:00N 46°30' W 084°24'813.6 280 / 81022.7 4.8 5.8
2015-Dec-07 05:25N 46°25' W 084°15'8 7.5
2015-Dec-07 04:17N 46°19' W 084°07'620.4
2015-Dec-07 04:00N 46°24' W 084°12'1223.6 280 / 111021.8 4.5 5.7
2015-Dec-07 03:29N 46°13' W 084°07'510.9
2015-Dec-07 03:00N 46°18' W 084°06'6 6.0 260 / 81022.1 4.4 5.7
2015-Dec-07 02:00N 46°12' W 084°06'1840.2 260 / 121021.8 4.9 5.4
2015-Dec-07 01:32N 45°56' W 083°53'4 7.5
2015-Dec-07 01:00N 46°00' W 083°54'7 7.3 270 / 141021.5 5.3 4.3
2015-Dec-07 00:00N 45°54' W 083°48'2713.5 270 / 241021.5 6.3 6.5
2015-Dec-06 22:00N 45°30' W 083°30'1514.7 300 / 81022.1 5.8 6.0
2015-Dec-06 21:00N 45°18' W 083°18'1010.4 150 / 71022.1 5.5 6.0
2015-Dec-06 20:00N 45°12' W 083°06'6813.6 180 / 81022.5 5.1 6.0
2015-Dec-06 15:00N 44°06' W 082°42'3712.3 200 / 161028.2 1.7 6.4
2015-Dec-06 12:00N 43°30' W 082°30'1312.8 170 / 161029.9 1.9 7.3
2015-Dec-06 11:00N 43°18' W 082°24'1212.0 190 / 131030.9 0.8 6.6
2015-Dec-06 10:00N 43°06' W 082°24'1212.0 190 / 91031.6 0.7 6.9
2015-Dec-06 09:00N 42°54' W 082°24'7 7.9 190 / 71032.3 0.8 6.6
2015-Dec-06 08:05N 42°48' W 082°29'112.2
2015-Dec-06 08:00N 42°48' W 082°30'512.0 210 / 71033.3 0.5 6.4
2015-Dec-06 07:33N 42°43' W 082°29'712.0
2015-Dec-06 07:00N 42°36' W 082°30'4 8.9 200 / 111034.3 0.6 6.5
2015-Dec-06 06:33N 42°34' W 082°35'712.1
2015-Dec-06 06:00N 42°30' W 082°42'3 7.0 180 / 81034.1 1.4 6.5
2015-Dec-06 05:33N 42°28' W 082°45'4 8.0
2015-Dec-06 05:00N 42°24' W 082°48'716.1 180 / 51034.5 0.6 5.6
2015-Dec-06 04:33N 42°21' W 082°57'4 6.9
2015-Dec-06 04:00N 42°18' W 083°00'7 7.5 120 / 41034.8 0.4 5.4
2015-Dec-06 03:00N 42°12' W 083°06'24 8.1 160 / 71035.8 1.2 5.5
2015-Dec-06 00:00N 41°48' W 083°12'1110.8 180 / 51036.7 0.4 5.1
2015-Dec-05 23:00N 41°42' W 083°24'4 4.5 160 / 61036.7 0.5 4.7
2015-Dec-05 22:00N 41°42' W 083°30'0 0.0 120 / 41036.7 0.6 6.0
2015-Dec-05 21:00N 41°42' W 083°30'0 0.0 120 / 41036.7 1.3 6.2
2015-Dec-05 19:00N 41°42' W 083°30'0 0.0 230 / 41037.1 0.8 5.9
2015-Dec-05 18:00N 41°42' W 083°30'0 0.0 230 / 41037.4 -0.0 6.1
2015-Dec-05 17:00N 41°42' W 083°30'0 0.0 230 / 61038.1 -0.3 5.9
2015-Dec-05 13:00N 41°42' W 083°30'0 0.0 220 / 81038.8 -0.7 5.7
2015-Dec-05 12:00N 41°42' W 083°30'0 0.0 210 / 51038.4 -0.5 5.8
2015-Dec-05 10:00N 41°42' W 083°30'0 0.0 190 / 61037.8 -0.4 6.1
2015-Dec-05 09:00N 41°42' W 083°30'0 0.0 180 / 81037.4 -0.4 6.1
2015-Dec-05 08:00N 41°42' W 083°30'4 4.5 190 / 91037.4 -0.5 6.0
2015-Dec-05 07:00N 41°42' W 083°24'7 7.5 200 / 111036.4 -0.0 5.2
2015-Dec-05 06:00N 41°48' W 083°18'2010.0 210 / 161035.4 1.8 5.2
2015-Dec-05 04:00N 42°06' W 083°06'13 3.2 190 / 101035.5 3.3 5.9
2015-Dec-05 00:00N 42°18' W 083°12'0 0.0 190 / 61034.8 5.5 10.8
2015-Dec-04 23:00N 42°18' W 083°12'0 0.0 200 / 81034.5 5.4 10.5
2015-Dec-04 21:00N 42°18' W 083°12'7 2.9 180 / 61033.1 7.0 10.0
2015-Dec-04 18:24N 42°19' W 083°02'2 5.5
2015-Dec-04 18:00N 42°18' W 083°00'817.7 240 / 101032.1 4.0 5.7
2015-Dec-04 17:32N 42°23' W 082°52'1111.1
2015-Dec-04 16:33N 42°31' W 082°41'611.3
2015-Dec-04 16:00N 42°36' W 082°36'8 8.3 220 / 131031.8 3.5 6.5
2015-Dec-04 15:04N 42°42' W 082°30'0 2.4
2015-Dec-04 15:00N 42°42' W 082°30'1212.0 220 / 101031.6 3.6 6.8
2015-Dec-04 14:00N 42°54' W 082°30'4210.5 170 / 51030.9 2.9 6.8
2015-Dec-04 10:00N 43°36' W 082°30'1212.0 240 / 191025.2 3.8 7.6
2015-Dec-04 09:00N 43°48' W 082°30'3712.3 240 / 221023.8 3.7 6.7
2015-Dec-04 06:00N 44°24' W 082°42'1312.7 250 / 271021.8 3.4 6.5
2015-Dec-04 05:00N 44°36' W 082°48'3812.7 240 / 251021.1 3.4 6.3
2015-Dec-04 02:00N 45°12' W 083°06'1010.4 240 / 171020.8 4.1 6.7
2015-Dec-04 01:00N 45°18' W 083°18'1312.7 220 / 141020.4 3.9 6.1
2015-Dec-04 00:00N 45°30' W 083°24'1514.6 240 / 171020.1 4.2 5.9
2015-Dec-03 23:00N 45°42' W 083°36'1514.6 240 / 131020.1 3.9 6.4
2015-Dec-03 22:00N 45°54' W 083°48'2022.4 260 / 221019.8 3.2 6.6
2015-Dec-03 21:07N 46°10' W 084°04'12105.6
2015-Dec-03 21:00N 46°00' W 083°54'27 9.0 270 / 121020.1 1.2 4.2
2015-Dec-03 18:00N 46°24' W 084°12'7 7.3 180 / 61018.8 1.1 5.7
2015-Dec-03 17:00N 46°30' W 084°18'0 0.0 270 / 21019.4 1.2 5.6
2015-Dec-03 16:00N 46°30' W 084°18'7 9.8 320 / 21018.8 0.9 5.6
2015-Dec-03 15:18N 46°28' W 084°28'310.0
2015-Dec-03 15:00N 46°30' W 084°24'8 8.3 030 / 51019.0 0.6 5.8
2015-Dec-03 14:00N 46°30' W 084°36'1010.2 340 / 111018.6 1.7 6.4
2015-Dec-03 13:00N 46°36' W 084°48'1514.6 330 / 111017.6 2.2 6.7
2015-Dec-03 12:00N 46°48' W 085°00'1010.2 1016.9 1.8 6.2
2015-Dec-03 11:00N 46°54' W 085°12'2914.7 350 / 171015.9 1.8 6.0
2015-Dec-03 09:00N 46°48' W 085°54'1212.3 310 / 241015.6 1.6 6.3
2015-Dec-03 08:00N 46°48' W 086°12'1413.7 330 / 261015.6 1.9 5.7
2015-Dec-03 07:00N 46°42' W 086°30'1212.3 340 / 251014.6 2.5 5.5
2015-Dec-03 06:00N 46°42' W 086°48'1010.2 340 / 251014.6 2.6 5.8
2015-Dec-03 05:00N 46°36' W 087°00'1212.4 350 / 251013.5 3.0 5.6
2015-Dec-03 04:00N 46°36' W 087°18'4 4.1 360 / 271012.9 3.7 5.5
2015-Dec-03 03:00N 46°36' W 087°24'0 0.0 340 / 31013.2 3.7 4.9
2015-Dec-03 02:00N 46°36' W 087°24'0 0.0 300 / 41012.5 2.5 5.0
2015-Dec-03 01:00N 46°36' W 087°24'0 0.0 300 / 41012.2 2.6 5.3
2015-Dec-03 00:00N 46°36' W 087°24'0 0.0 300 / 61011.5 2.9 5.1
2015-Dec-02 23:00N 46°36' W 087°24'0 0.0 310 / 81010.8 3.3 5.1
2015-Dec-02 22:00N 46°36' W 087°24'0 0.0 310 / 31010.2 4.0 4.9
2015-Dec-02 21:00N 46°36' W 087°24'6 6.0 1009.1 3.9 5.4
2015-Dec-02 20:00N 46°30' W 087°24'0 0.0 350 / 81008.5 3.9 5.0
2015-Dec-02 19:00N 46°30' W 087°24'0 0.0 050 / 61007.8 3.7 4.9
2015-Dec-02 18:00N 46°30' W 087°24'0 0.0 050 / 51007.8 3.5 5.0
2015-Dec-02 17:00N 46°30' W 087°24'0 0.0 270 / 11008.5 4.6 4.8
2015-Dec-02 16:00N 46°30' W 087°24'0 0.0 250 / 21008.8 3.2 4.7
2015-Dec-02 15:00N 46°30' W 087°24'1413.8 260 / 51008.8 1.2 5.5
2015-Dec-02 14:00N 46°36' W 087°06'2512.7 210 / 141007.8 1.2 5.8
2015-Dec-02 12:00N 46°42' W 086°30'1212.3 190 / 161007.5 2.1 5.7
2015-Dec-02 11:00N 46°42' W 086°12'1413.7 190 / 191006.8 1.6 5.7
2015-Dec-02 10:00N 46°48' W 085°54'1212.3 200 / 201006.4 1.8 5.7
2015-Dec-02 09:00N 46°48' W 085°36'1212.3 190 / 211006.1 2.7 5.7
2015-Dec-02 08:00N 46°48' W 085°18'8 8.2 190 / 241006.4 3.3 6.0
2015-Dec-02 07:00N 46°48' W 085°06'1413.7 210 / 161007.1 3.1 6.2
2015-Dec-02 06:00N 46°42' W 084°48'1514.6 220 / 201007.5 4.2 6.7
2015-Dec-02 05:00N 46°30' W 084°36'4 4.1 220 / 191007.5 4.5 6.4
2015-Dec-02 04:00N 46°30' W 084°30'4 4.1 190 / 111007.5 4.1 5.7
2015-Dec-02 03:00N 46°30' W 084°24'4 4.1 100 / 21008.5 3.5 5.6
2015-Dec-02 02:00N 46°30' W 084°18'15 7.3 100 / 31007.6 3.2 5.4
2015-Dec-02 00:00N 46°18' W 084°06'6 6.0 120 / 51007.6 3.6 5.3
2015-Dec-01 23:00N 46°12' W 084°06'2211.0 200 / 91007.2 4.8 4.8
2015-Dec-01 21:00N 45°54' W 083°48'2713.5 130 / 161007.2 5.9 6.7
2015-Dec-01 19:00N 45°30' W 083°30'1312.7 120 / 201007.9 5.2 6.0
2015-Dec-01 18:00N 45°18' W 083°24'0 0.0 120 / 211008.6 5.0 5.5
2015-Dec-01 15:00N 45°18' W 083°24'   120 / 171012.0 4.5 4.7

Dump ship's entire track history